Country
Station

 

Weather  for  Bodo Vi  -  Norway    Norway

  
4 °C (39 °F)
    
 
 

Current METAR for Bodo Vi is :

ENBO 191350Z 22020KT 9999 -SHRA FEW008 BKN015 04/03 Q0982 TEMPO 4000 SHRASN BKN014CB BECMG 01025KT

 

This is a report for Bodo Vi - Norway.
 
The report was made 21 minutes ago, at 13:50 UTC .
The wind was blowing at a speed of 10.3 meters per second (23.0 miles per hour) from southwest (220°).
 
The temperature was 4 °C (39 °F), with a dew-point at 3 °C (37 °F).
The temperature felt like -2 °C (28 °F).
 
The atmospheric pressure was 982 hPa (29.00 inHg).
The relative humidity was 93.2%.
 
There were a few clouds at a height of 244 meters (800 feet) and broken clouds at a height of 457 meters (1500 feet).
 
The overall visibility was greater than 10 kilometers (6.2 miles).
 
Currently showers of light rain.

 
 
 
 

Country :   A   B   C   D   E   F   G   H   I   J   K   L   M   N   O   P   Q   R   S   T   U   V   W   Y   Z

 

Site Info  |  Disclaimer  |  Credits  |  Privacy
Contact us  |  Add to favorites
© 2013-2019 METARs - All rights reserved